createdAt,value
2023-06-04T00:03:03.516Z,2.63
2023-06-04T00:06:06.050Z,2.30
2023-06-04T00:09:08.407Z,2.30
2023-06-04T00:12:10.896Z,2.10
2023-06-04T00:15:15.045Z,2.20
2023-06-04T00:18:17.409Z,3.20
2023-06-04T00:21:19.892Z,2.10
2023-06-04T00:24:22.166Z,2.00
2023-06-04T00:27:24.501Z,1.77
2023-06-04T00:30:26.940Z,1.80
2023-06-04T00:33:29.297Z,1.58
2023-06-04T00:36:32.051Z,1.67
2023-06-04T00:39:35.655Z,1.75
2023-06-04T00:42:38.577Z,1.60
2023-06-04T00:45:42.053Z,1.42
2023-06-04T00:48:51.031Z,1.70
2023-06-04T00:51:53.365Z,1.70
2023-06-04T00:54:55.742Z,1.50
2023-06-04T00:57:58.686Z,1.53
2023-06-04T01:01:05.323Z,1.65
2023-06-04T01:04:13.730Z,1.60
2023-06-04T01:07:17.368Z,1.42
2023-06-04T01:10:20.022Z,1.60
2023-06-04T01:13:22.807Z,1.77
2023-06-04T01:16:30.016Z,1.80
2023-06-04T01:19:52.522Z,2.25
2023-06-04T01:22:57.855Z,2.10
2023-06-04T01:26:03.819Z,3.03
2023-06-04T01:29:06.964Z,2.83
2023-06-04T01:32:09.832Z,3.20
2023-06-04T01:35:13.055Z,2.67
2023-06-04T01:38:16.180Z,2.50
2023-06-04T01:41:19.129Z,2.70
2023-06-04T01:44:21.462Z,2.30
2023-06-04T01:47:23.736Z,2.42
2023-06-04T01:50:26.166Z,2.42
2023-06-04T01:53:28.608Z,2.50
2023-06-04T01:56:31.674Z,2.28
2023-06-04T01:59:34.630Z,2.33
2023-06-04T02:02:38.302Z,1.98
2023-06-04T02:05:41.188Z,2.00
2023-06-04T02:08:43.711Z,2.00
2023-06-04T02:11:46.102Z,2.05
2023-06-04T02:14:48.374Z,1.80
2023-06-04T02:17:52.323Z,1.60
2023-06-04T02:20:57.673Z,1.90
2023-06-04T02:24:00.130Z,2.13
2023-06-04T02:27:02.636Z,2.00
2023-06-04T02:30:07.169Z,1.93
2023-06-04T02:33:11.448Z,2.60
2023-06-04T02:36:14.096Z,2.30
2023-06-04T02:39:16.427Z,2.22
2023-06-04T02:42:19.730Z,2.35
2023-06-04T02:45:23.035Z,2.07
2023-06-04T02:48:25.297Z,2.40
2023-06-04T02:51:29.527Z,2.40
2023-06-04T02:54:31.825Z,2.20
2023-06-04T02:57:34.605Z,2.40
2023-06-04T03:00:39.222Z,2.27
2023-06-04T03:03:41.515Z,2.58
2023-06-04T03:06:48.313Z,2.17
2023-06-04T03:09:51.356Z,1.90
2023-06-04T03:12:53.685Z,2.20
2023-06-04T03:15:56.619Z,2.37
2023-06-04T03:18:59.101Z,1.70
2023-06-04T03:22:01.961Z,2.17
2023-06-04T03:25:05.509Z,2.00
2023-06-04T03:28:07.927Z,2.28
2023-06-04T03:31:10.426Z,2.20
2023-06-04T03:34:12.796Z,1.90
2023-06-04T03:37:15.746Z,2.03
2023-06-04T03:40:18.180Z,2.10
2023-06-04T03:43:22.432Z,2.13
2023-06-04T03:46:32.897Z,1.87
2023-06-04T03:49:35.800Z,1.75
2023-06-04T03:52:38.326Z,2.28
2023-06-04T03:55:41.654Z,1.70
2023-06-04T03:58:45.227Z,1.80
2023-06-04T04:01:47.982Z,2.50
2023-06-04T04:04:51.788Z,2.45
2023-06-04T04:07:54.129Z,2.17
2023-06-04T04:11:01.160Z,1.83
2023-06-04T04:14:04.159Z,2.10
2023-06-04T04:17:06.690Z,1.97
2023-06-04T04:20:09.374Z,1.42
2023-06-04T04:23:14.230Z,1.67
2023-06-04T04:26:19.714Z,1.50
2023-06-04T04:29:25.987Z,1.27
2023-06-04T04:32:28.699Z,1.50
2023-06-04T04:35:33.644Z,1.25
2023-06-04T04:38:38.358Z,1.63
2023-06-04T04:41:40.971Z,1.50
2023-06-04T04:44:43.617Z,1.35
2023-06-04T04:47:46.525Z,1.70
2023-06-04T04:50:49.001Z,1.20
2023-06-04T04:53:51.658Z,1.60
2023-06-04T04:57:11.764Z,1.67
2023-06-04T05:00:18.430Z,1.60
2023-06-04T05:03:24.118Z,1.50
2023-06-04T05:06:26.551Z,1.42
2023-06-04T05:09:29.135Z,1.40
2023-06-04T05:12:33.125Z,1.50
2023-06-04T05:15:37.111Z,1.55
2023-06-04T05:18:45.912Z,1.40
2023-06-04T05:21:52.934Z,1.58
2023-06-04T05:24:55.337Z,1.45
2023-06-04T05:27:58.295Z,1.75
2023-06-04T05:31:01.383Z,1.23
2023-06-04T05:34:08.067Z,1.50
2023-06-04T05:37:14.084Z,1.40
2023-06-04T05:40:17.012Z,1.38
2023-06-04T05:43:20.655Z,1.30
2023-06-04T05:46:23.485Z,1.45
2023-06-04T05:49:26.346Z,1.40
2023-06-04T05:52:32.555Z,1.50
2023-06-04T05:55:35.127Z,1.40
2023-06-04T05:58:37.924Z,1.38
2023-06-04T06:01:41.904Z,1.48
2023-06-04T06:04:45.904Z,1.80
2023-06-04T06:07:48.824Z,1.30
2023-06-04T06:10:51.294Z,1.60
2023-06-04T06:13:54.307Z,1.98
2023-06-04T06:16:56.793Z,1.60
2023-06-04T06:20:00.038Z,1.67
2023-06-04T06:23:08.574Z,1.55
2023-06-04T06:26:14.970Z,1.83
2023-06-04T06:29:23.412Z,1.52
2023-06-04T06:32:28.492Z,1.55
2023-06-04T06:35:31.104Z,1.40
2023-06-04T06:38:33.495Z,1.40
2023-06-04T06:41:36.290Z,1.13
2023-06-04T06:44:39.617Z,1.40
2023-06-04T06:47:41.907Z,1.60
2023-06-04T06:50:44.265Z,1.53
2023-06-04T06:53:46.764Z,1.30
2023-06-04T06:56:51.514Z,1.55
2023-06-04T06:59:55.107Z,1.55
2023-06-04T07:02:57.544Z,1.48
2023-06-04T07:06:00.062Z,1.37
2023-06-04T07:09:02.338Z,1.40
2023-06-04T07:12:05.007Z,1.13
2023-06-04T07:15:09.439Z,1.10
2023-06-04T07:18:11.869Z,1.50
2023-06-04T07:21:14.176Z,1.40
2023-06-04T07:24:16.517Z,1.33
2023-06-04T07:27:20.225Z,1.40
2023-06-04T07:30:22.512Z,1.30
2023-06-04T07:33:25.667Z,1.20
2023-06-04T07:36:30.089Z,1.70
2023-06-04T07:39:32.625Z,1.50
2023-06-04T07:42:34.988Z,1.90
2023-06-04T07:45:37.332Z,1.85
2023-06-04T07:48:39.586Z,1.73
2023-06-04T07:51:42.010Z,2.00
2023-06-04T07:54:44.284Z,1.60
2023-06-04T07:57:46.608Z,1.63
2023-06-04T08:00:48.934Z,1.85
2023-06-04T08:03:51.571Z,3.90
2023-06-04T08:06:54.066Z,1.80
2023-06-04T08:09:57.589Z,1.80
2023-06-04T08:12:59.887Z,2.00
2023-06-04T08:16:02.282Z,1.90
2023-06-04T08:19:04.670Z,1.95
2023-06-04T08:22:07.629Z,1.80
2023-06-04T08:25:12.136Z,1.50
2023-06-04T08:28:16.572Z,1.42
2023-06-04T08:31:19.063Z,1.67
2023-06-04T08:34:22.214Z,2.13
2023-06-04T08:37:25.732Z,1.50
2023-06-04T08:40:28.234Z,1.60
2023-06-04T08:43:31.232Z,1.50
2023-06-04T08:46:34.193Z,1.55
2023-06-04T08:49:37.790Z,1.52
2023-06-04T08:52:41.965Z,1.50
2023-06-04T08:55:44.456Z,1.27
2023-06-04T08:58:49.348Z,1.50
2023-06-04T09:01:57.410Z,1.60
2023-06-04T09:04:59.773Z,1.48
2023-06-04T09:08:04.647Z,1.60
2023-06-04T09:11:11.465Z,1.60
2023-06-04T09:14:19.775Z,1.42
2023-06-04T09:17:24.515Z,1.60
2023-06-04T09:20:29.245Z,1.67
2023-06-04T09:23:31.677Z,1.60
2023-06-04T09:26:34.099Z,1.67
2023-06-04T09:29:37.250Z,1.60
2023-06-04T09:32:39.571Z,1.52
2023-06-04T09:35:41.986Z,1.40
2023-06-04T09:38:44.578Z,2.00
2023-06-04T09:42:03.762Z,1.75
2023-06-04T09:45:06.706Z,1.60
2023-06-04T09:48:10.207Z,1.50
2023-06-04T09:51:19.618Z,1.48
2023-06-04T09:54:22.012Z,1.63
2023-06-04T09:57:25.010Z,1.80
2023-06-04T10:00:29.154Z,1.63
2023-06-04T10:03:36.345Z,1.40
2023-06-04T10:06:40.236Z,1.45
2023-06-04T10:09:47.010Z,1.50
2023-06-04T10:13:00.465Z,2.00
2023-06-04T10:16:05.033Z,2.00
2023-06-04T10:19:09.099Z,1.48
2023-06-04T10:22:12.677Z,1.60
2023-06-04T10:25:16.903Z,1.97
2023-06-04T10:28:23.525Z,2.10
2023-06-04T10:31:26.364Z,1.60
2023-06-04T10:34:31.441Z,1.67
2023-06-04T10:37:33.814Z,1.70
2023-06-04T10:40:37.332Z,1.50
2023-06-04T10:43:39.723Z,1.70
2023-06-04T10:46:42.944Z,1.90
2023-06-04T10:49:45.511Z,1.63
2023-06-04T10:52:57.615Z,1.52
2023-06-04T10:55:59.931Z,1.50
2023-06-04T10:59:13.944Z,2.05
2023-06-04T11:02:16.358Z,2.08
2023-06-04T11:05:19.826Z,2.05
2023-06-04T11:08:30.105Z,1.83
2023-06-04T11:11:33.229Z,1.70
2023-06-04T11:14:35.627Z,2.00
2023-06-04T11:17:38.302Z,1.95
2023-06-04T11:20:40.864Z,2.10
2023-06-04T11:23:43.686Z,1.63
2023-06-04T11:26:56.793Z,1.80
2023-06-04T11:29:59.473Z,2.20
2023-06-04T11:33:06.033Z,1.08
2023-06-04T11:36:08.440Z,2.10
2023-06-04T11:39:11.708Z,2.08
2023-06-04T11:42:14.115Z,2.03
2023-06-04T11:45:19.054Z,2.40
2023-06-04T11:48:21.487Z,1.92
2023-06-04T11:51:24.631Z,1.90
2023-06-04T11:54:27.236Z,1.67
2023-06-04T11:57:31.243Z,1.80
2023-06-04T12:00:33.794Z,2.08
2023-06-04T12:03:40.985Z,2.28
2023-06-04T12:06:57.721Z,2.45
2023-06-04T12:10:08.533Z,2.13
2023-06-04T12:13:11.493Z,2.20
2023-06-04T12:16:16.426Z,2.17
2023-06-04T12:19:18.896Z,1.70
2023-06-04T12:22:21.617Z,1.70
2023-06-04T12:25:28.333Z,1.95
2023-06-04T12:28:30.813Z,2.10
2023-06-04T12:31:33.432Z,1.90
2023-06-04T12:34:36.365Z,2.20
2023-06-04T12:37:38.953Z,2.17
2023-06-04T12:40:41.616Z,2.00
2023-06-04T12:43:43.950Z,2.10
2023-06-04T12:46:46.292Z,2.10
2023-06-04T12:49:48.692Z,2.25
2023-06-04T12:52:51.099Z,1.70
2023-06-04T12:55:53.536Z,1.83
2023-06-04T12:58:55.872Z,1.90
2023-06-04T13:01:58.360Z,2.00
2023-06-04T13:05:00.711Z,2.00
2023-06-04T13:08:03.298Z,2.40
2023-06-04T13:11:06.930Z,2.20
2023-06-04T13:14:10.767Z,3.27
2023-06-04T13:17:22.229Z,2.30
2023-06-04T13:20:25.424Z,2.10
2023-06-04T13:23:41.431Z,2.38
2023-06-04T13:26:49.960Z,2.20
2023-06-04T13:29:52.200Z,2.00
2023-06-04T13:32:55.990Z,2.10
2023-06-04T13:35:58.355Z,2.10
2023-06-04T13:39:00.674Z,2.05
2023-06-04T13:42:03.075Z,1.98
2023-06-04T13:45:05.969Z,2.20
2023-06-04T13:48:08.902Z,2.22
2023-06-04T13:51:11.456Z,2.13
2023-06-04T13:54:13.854Z,2.33
2023-06-04T13:57:17.141Z,2.15
2023-06-04T14:00:19.518Z,2.23
2023-06-04T14:03:22.326Z,2.47
2023-06-04T14:06:24.931Z,2.60
2023-06-04T14:09:27.228Z,2.40
2023-06-04T14:12:29.500Z,2.33
2023-06-04T14:15:31.841Z,2.40
2023-06-04T14:18:34.210Z,2.45
2023-06-04T14:21:37.120Z,2.60
2023-06-04T14:24:41.671Z,2.63
2023-06-04T14:27:44.897Z,2.78
2023-06-04T14:30:48.156Z,3.00
2023-06-04T14:33:50.684Z,2.45
2023-06-04T14:36:52.969Z,2.55
2023-06-04T14:39:55.358Z,2.13
2023-06-04T14:42:58.690Z,2.00
2023-06-04T14:46:01.086Z,2.77
2023-06-04T14:49:03.628Z,2.28
2023-06-04T14:52:06.231Z,2.38
2023-06-04T14:55:09.075Z,2.22
2023-06-04T14:58:12.401Z,2.10
2023-06-04T15:01:14.717Z,2.90
2023-06-04T15:04:17.200Z,2.47
2023-06-04T15:07:20.198Z,2.40
2023-06-04T15:10:22.571Z,2.30
2023-06-04T15:13:25.000Z,2.00
2023-06-04T15:16:27.361Z,2.03
2023-06-04T15:19:29.754Z,2.20
2023-06-04T15:22:32.213Z,1.83
2023-06-04T15:25:34.519Z,1.98
2023-06-04T15:28:36.895Z,1.90
2023-06-04T15:31:39.226Z,2.47
2023-06-04T15:34:42.137Z,4.20
2023-06-04T15:37:44.559Z,2.80
2023-06-04T15:40:46.913Z,2.50
2023-06-04T15:43:50.557Z,1.98
2023-06-04T15:47:06.252Z,2.17
2023-06-04T15:50:08.914Z,2.42
2023-06-04T15:53:11.232Z,2.00
2023-06-04T15:56:16.829Z,2.13
2023-06-04T15:59:19.183Z,3.20
2023-06-04T16:02:21.546Z,3.37
2023-06-04T16:05:23.826Z,2.60
2023-06-04T16:08:27.368Z,2.20
2023-06-04T16:11:29.740Z,2.63
2023-06-04T16:14:33.393Z,2.15
2023-06-04T16:17:35.708Z,1.80
2023-06-04T16:20:39.194Z,2.30
2023-06-04T16:23:41.570Z,2.10
2023-06-04T16:26:44.044Z,2.45
2023-06-04T16:29:46.486Z,2.50
2023-06-04T16:32:48.897Z,2.20
2023-06-04T16:35:51.695Z,2.70
2023-06-04T16:38:54.230Z,2.60
2023-06-04T16:41:59.352Z,2.30
2023-06-04T16:45:01.733Z,1.95
2023-06-04T16:48:04.450Z,2.33
2023-06-04T16:51:06.910Z,2.38
2023-06-04T16:54:09.188Z,2.67
2023-06-04T16:57:11.436Z,2.40
2023-06-04T17:00:25.625Z,2.20
2023-06-04T17:03:29.612Z,2.33
2023-06-04T17:06:32.435Z,2.50
2023-06-04T17:09:34.843Z,2.20
2023-06-04T17:12:37.726Z,2.60
2023-06-04T17:15:40.262Z,2.67
2023-06-04T17:18:42.561Z,2.40
2023-06-04T17:21:44.903Z,2.35
2023-06-04T17:24:47.234Z,2.60
2023-06-04T17:27:52.050Z,2.40
2023-06-04T17:30:54.482Z,2.70
2023-06-04T17:33:56.849Z,2.67
2023-06-04T17:37:01.144Z,2.83
2023-06-04T17:40:04.725Z,2.53
2023-06-04T17:43:07.024Z,2.22
2023-06-04T17:46:10.237Z,2.67
2023-06-04T17:49:14.773Z,3.20
2023-06-04T17:52:17.052Z,2.83
2023-06-04T17:55:19.551Z,2.58
2023-06-04T17:58:21.895Z,2.85
2023-06-04T18:01:24.264Z,2.67
2023-06-04T18:04:26.663Z,2.57
2023-06-04T18:07:28.952Z,3.05
2023-06-04T18:10:31.749Z,2.53
2023-06-04T18:13:34.436Z,2.85
2023-06-04T18:16:36.840Z,2.70
2023-06-04T18:19:39.248Z,2.90
2023-06-04T18:22:41.645Z,2.88
2023-06-04T18:25:44.046Z,2.78
2023-06-04T18:28:46.461Z,3.03
2023-06-04T18:31:48.881Z,3.08
2023-06-04T18:34:51.208Z,2.70
2023-06-04T18:37:53.618Z,2.90
2023-06-04T18:40:55.965Z,2.80
2023-06-04T18:43:58.235Z,2.85
2023-06-04T18:47:02.238Z,2.60
2023-06-04T18:50:05.579Z,2.80
2023-06-04T18:53:07.913Z,2.88
2023-06-04T18:56:10.320Z,3.05
2023-06-04T18:59:13.998Z,3.40
2023-06-04T19:02:16.411Z,2.90
2023-06-04T19:05:19.026Z,3.10
2023-06-04T19:08:21.366Z,2.90
2023-06-04T19:11:25.005Z,3.10
2023-06-04T19:14:27.387Z,2.78
2023-06-04T19:17:30.312Z,3.00
2023-06-04T19:20:32.723Z,3.27
2023-06-04T19:23:35.704Z,2.80
2023-06-04T19:26:37.989Z,2.67
2023-06-04T19:29:43.633Z,3.00
2023-06-04T19:32:46.029Z,2.53
2023-06-04T19:35:48.536Z,2.63
2023-06-04T19:38:50.971Z,2.80
2023-06-04T19:41:53.344Z,2.80
2023-06-04T19:44:55.704Z,2.78
2023-06-04T19:47:59.328Z,2.70
2023-06-04T19:51:01.686Z,2.70
2023-06-04T19:54:04.152Z,2.60
2023-06-04T19:57:11.169Z,2.85
2023-06-04T20:00:14.368Z,2.78
2023-06-04T20:03:17.901Z,2.72
2023-06-04T20:06:20.288Z,2.90
2023-06-04T20:09:22.747Z,2.60
2023-06-04T20:12:25.040Z,2.60
2023-06-04T20:15:27.427Z,2.30
2023-06-04T20:18:32.479Z,2.47
2023-06-04T20:21:36.197Z,2.57
2023-06-04T20:24:46.103Z,2.30
2023-06-04T20:27:48.463Z,2.50
2023-06-04T20:30:51.036Z,2.85
2023-06-04T20:33:56.890Z,2.40
2023-06-04T20:37:03.980Z,2.07
2023-06-04T20:40:06.983Z,2.50
2023-06-04T20:43:09.232Z,2.15
2023-06-04T20:46:11.803Z,2.20
2023-06-04T20:49:14.491Z,2.20
2023-06-04T20:52:16.790Z,2.53
2023-06-04T20:55:19.153Z,2.45
2023-06-04T20:58:21.954Z,2.30
2023-06-04T21:01:24.283Z,2.30
2023-06-04T21:04:26.607Z,2.22
2023-06-04T21:07:29.001Z,2.80
2023-06-04T21:10:31.351Z,2.30
2023-06-04T21:13:34.561Z,2.30
2023-06-04T21:16:36.991Z,2.30
2023-06-04T21:19:39.331Z,2.10
2023-06-04T21:22:41.746Z,2.20
2023-06-04T21:25:44.299Z,2.25
2023-06-04T21:28:47.052Z,2.00
2023-06-04T21:31:49.439Z,2.33
2023-06-04T21:34:51.787Z,2.45
2023-06-04T21:37:54.097Z,2.53
2023-06-04T21:40:56.439Z,1.95
2023-06-04T21:43:59.032Z,2.13
2023-06-04T21:47:01.917Z,2.05
2023-06-04T21:50:04.539Z,2.10
2023-06-04T21:53:06.950Z,2.60
2023-06-04T21:56:09.317Z,2.20
2023-06-04T21:59:11.768Z,2.00
2023-06-04T22:02:14.099Z,2.40
2023-06-04T22:05:16.666Z,2.00
2023-06-04T22:08:19.024Z,2.20
2023-06-04T22:11:21.468Z,2.20
2023-06-04T22:14:23.964Z,2.15
2023-06-04T22:17:26.400Z,2.10
2023-06-04T22:20:28.757Z,2.60
2023-06-04T22:23:31.257Z,2.27
2023-06-04T22:26:37.979Z,2.15
2023-06-04T22:29:40.746Z,2.10
2023-06-04T22:32:43.698Z,2.53
2023-06-04T22:35:48.179Z,2.28
2023-06-04T22:38:50.494Z,2.33
2023-06-04T22:41:52.914Z,2.28
2023-06-04T22:44:55.267Z,2.17
2023-06-04T22:47:58.985Z,2.70
2023-06-04T22:51:02.941Z,2.40
2023-06-04T22:54:05.286Z,2.40
2023-06-04T22:57:08.020Z,2.70
2023-06-04T23:00:12.296Z,2.45
2023-06-04T23:03:15.436Z,2.70
2023-06-04T23:06:17.923Z,2.78
2023-06-04T23:09:20.201Z,2.60
2023-06-04T23:12:22.598Z,2.60
2023-06-04T23:15:25.238Z,2.45
2023-06-04T23:18:27.624Z,3.10
2023-06-04T23:21:29.969Z,3.00
2023-06-04T23:24:34.213Z,2.77
2023-06-04T23:27:36.923Z,2.90
2023-06-04T23:30:39.242Z,2.83
2023-06-04T23:33:41.724Z,2.90
2023-06-04T23:36:44.028Z,3.00
2023-06-04T23:39:46.320Z,2.63
2023-06-04T23:42:48.620Z,2.90
2023-06-04T23:45:51.020Z,2.85
2023-06-04T23:48:53.936Z,3.30
2023-06-04T23:51:57.462Z,3.38
2023-06-04T23:54:59.762Z,3.27
2023-06-04T23:58:02.278Z,3.00
